createdAt,value
2019-04-05T00:02:05.112Z,95815.89
2019-04-05T00:05:12.139Z,95815.19
2019-04-05T00:08:19.177Z,95818.30
2019-04-05T00:11:26.078Z,95821.16
2019-04-05T00:14:35.038Z,95828.73
2019-04-05T00:17:43.549Z,95829.63
2019-04-05T00:20:50.392Z,95833.27
2019-04-05T00:23:57.279Z,95848.64
2019-04-05T00:27:04.130Z,95845.16
2019-04-05T00:30:11.809Z,95854.06
2019-04-05T00:33:18.657Z,95863.67
2019-04-05T00:36:25.559Z,95849.51
2019-04-05T00:39:32.840Z,95857.02
2019-04-05T00:42:40.261Z,95848.67
2019-04-05T00:45:47.154Z,95841.81
2019-04-05T00:48:54.051Z,95857.53
2019-04-05T00:52:00.921Z,95868.27
2019-04-05T00:55:08.533Z,95873.45
2019-04-05T00:58:15.395Z,95863.88
2019-04-05T01:01:22.296Z,95864.28
2019-04-05T01:04:33.639Z,95870.19
2019-04-05T01:07:40.552Z,95876.80
2019-04-05T01:10:47.403Z,95887.02
2019-04-05T01:13:55.244Z,95898.56
2019-04-05T01:17:02.348Z,95903.83
2019-04-05T01:20:11.604Z,95900.56
2019-04-05T01:23:18.923Z,95894.61
2019-04-05T01:26:26.828Z,95895.17
2019-04-05T01:29:35.333Z,95894.92
2019-04-05T01:32:42.443Z,95906.42
2019-04-05T01:35:49.334Z,95914.81
2019-04-05T01:38:56.224Z,95906.38
2019-04-05T01:42:03.149Z,95907.09
2019-04-05T01:45:11.801Z,95908.41
2019-04-05T01:48:18.800Z,95900.50
2019-04-05T01:51:25.698Z,95896.52
2019-04-05T01:54:36.016Z,95895.75
2019-04-05T01:57:42.893Z,95902.89
2019-04-05T02:00:49.751Z,95897.42
2019-04-05T02:03:56.822Z,95888.17
2019-04-05T02:07:03.680Z,95883.95
2019-04-05T02:10:11.096Z,95893.59
2019-04-05T02:13:18.082Z,95909.06
2019-04-05T02:16:25.094Z,95895.28
2019-04-05T02:19:37.266Z,95886.50
2019-04-05T02:22:44.272Z,95888.56
2019-04-05T02:25:51.320Z,95883.69
2019-04-05T02:28:58.317Z,95883.54
2019-04-05T02:32:08.253Z,95883.62
2019-04-05T02:35:15.130Z,95896.46
2019-04-05T02:38:22.025Z,95899.45
2019-04-05T02:41:30.950Z,95899.22
2019-04-05T02:44:39.403Z,95902.61
2019-04-05T02:47:53.553Z,95897.50
2019-04-05T02:51:03.444Z,95909.64
2019-04-05T02:54:11.144Z,95911.62
2019-04-05T02:57:18.510Z,95909.91
2019-04-05T03:00:25.589Z,95933.32
2019-04-05T03:03:33.047Z,95930.47
2019-04-05T03:06:40.708Z,95930.21
2019-04-05T03:09:47.920Z,95937.27
2019-04-05T03:12:54.797Z,95947.44
2019-04-05T03:16:05.462Z,95954.00
2019-04-05T03:19:24.227Z,95958.29
2019-04-05T03:22:36.691Z,95954.59
2019-04-05T03:25:43.800Z,95963.17
2019-04-05T03:28:54.145Z,95960.66
2019-04-05T03:32:01.171Z,95952.58
2019-04-05T03:35:08.266Z,95944.00
2019-04-05T03:38:15.463Z,95955.89
2019-04-05T03:41:23.499Z,95967.52
2019-04-05T03:44:31.888Z,95977.97
2019-04-05T03:47:38.750Z,95975.78
2019-04-05T03:50:45.964Z,95974.12
2019-04-05T03:53:52.899Z,95967.55
2019-04-05T03:57:00.017Z,95972.45
2019-04-05T04:00:07.685Z,95978.47
2019-04-05T04:03:15.287Z,95973.98
2019-04-05T04:06:22.160Z,95982.00
2019-04-05T04:09:30.620Z,95987.25
2019-04-05T04:12:37.795Z,95988.72
2019-04-05T04:15:44.961Z,95992.48
2019-04-05T04:18:52.139Z,95985.88
2019-04-05T04:22:26.221Z,95983.98
2019-04-05T04:25:37.939Z,95987.66
2019-04-05T04:28:46.437Z,95994.19
2019-04-05T04:31:53.586Z,96007.31
2019-04-05T04:35:00.466Z,96005.34
2019-04-05T04:38:08.724Z,96006.83
2019-04-05T04:41:16.113Z,96011.83
2019-04-05T04:44:23.223Z,96011.25
2019-04-05T04:47:32.979Z,96010.34
2019-04-05T04:50:40.246Z,96006.10
2019-04-05T04:53:47.456Z,96010.19
2019-04-05T04:56:54.346Z,96009.97
2019-04-05T05:00:01.257Z,96008.45
2019-04-05T05:03:08.838Z,96016.02
2019-04-05T05:06:15.834Z,96009.71
2019-04-05T05:09:23.298Z,96006.25
2019-04-05T05:12:34.954Z,96011.06
2019-04-05T05:15:41.894Z,96008.70
2019-04-05T05:18:49.008Z,96007.81
2019-04-05T05:21:55.883Z,96009.30
2019-04-05T05:25:02.975Z,96015.88
2019-04-05T05:28:11.100Z,96007.66
2019-04-05T05:31:18.364Z,96020.69
2019-04-05T05:34:25.274Z,96021.20
2019-04-05T05:37:34.285Z,96029.33
2019-04-05T05:40:43.748Z,96030.34
2019-04-05T05:43:50.935Z,96028.70
2019-04-05T05:46:57.809Z,96033.52
2019-04-05T05:50:05.118Z,96032.31
2019-04-05T05:53:12.040Z,96029.14
2019-04-05T05:56:18.926Z,96031.41
2019-04-05T05:59:27.743Z,96046.20
2019-04-05T06:02:38.376Z,96046.57
2019-04-05T06:05:43.243Z,96048.45
2019-04-05T06:08:50.141Z,96056.42
2019-04-05T06:11:58.078Z,96064.61
2019-04-05T06:15:05.990Z,96063.16
2019-04-05T06:18:12.951Z,96070.38
2019-04-05T06:21:21.038Z,96066.73
2019-04-05T06:24:28.000Z,96073.91
2019-04-05T06:27:36.822Z,96075.52
2019-04-05T06:30:44.814Z,96074.94
2019-04-05T06:33:51.722Z,96071.95
2019-04-05T06:36:58.856Z,96068.97
2019-04-05T06:40:06.325Z,96075.02
2019-04-05T06:43:13.192Z,96074.51
2019-04-05T06:46:20.074Z,96075.93
2019-04-05T06:49:27.560Z,96084.28
2019-04-05T06:52:36.880Z,96077.31
2019-04-05T06:55:43.732Z,96075.13
2019-04-05T06:58:52.138Z,96076.69
2019-04-05T07:01:58.990Z,96068.95
2019-04-05T07:05:06.462Z,96072.42
2019-04-05T07:08:13.318Z,96077.30
2019-04-05T07:11:20.218Z,96078.57
2019-04-05T07:14:29.802Z,96082.70
2019-04-05T07:17:36.992Z,96086.59
2019-04-05T07:20:43.863Z,96087.28
2019-04-05T07:23:50.770Z,96088.25
2019-04-05T07:26:57.695Z,96099.69
2019-04-05T07:30:05.064Z,96091.50
2019-04-05T07:33:12.321Z,96092.70
2019-04-05T07:36:19.278Z,96096.54
2019-04-05T07:39:26.423Z,96102.83
2019-04-05T07:42:33.358Z,96097.74
2019-04-05T07:45:40.237Z,96088.70
2019-04-05T07:48:47.149Z,96099.20
2019-04-05T07:51:54.012Z,96105.37
2019-04-05T07:55:00.829Z,96103.73
2019-04-05T07:58:08.789Z,96102.52
2019-04-05T08:01:16.185Z,96099.58
2019-04-05T08:04:23.047Z,96099.59
2019-04-05T08:07:37.422Z,96101.41
2019-04-05T08:10:46.016Z,96108.91
2019-04-05T08:13:55.575Z,96115.06
2019-04-05T08:17:02.456Z,96119.58
2019-04-05T08:20:09.571Z,96116.86
2019-04-05T08:23:16.431Z,96118.23
2019-04-05T08:26:23.524Z,96116.88
2019-04-05T08:29:30.383Z,96120.37
2019-04-05T08:32:38.461Z,96111.50
2019-04-05T08:35:46.520Z,96113.25
2019-04-05T08:38:53.432Z,96117.34
2019-04-05T08:42:00.304Z,96119.01
2019-04-05T08:45:08.029Z,96123.01
2019-04-05T08:48:14.894Z,96118.67
2019-04-05T08:51:22.273Z,96116.48
2019-04-05T08:54:33.221Z,96117.44
2019-04-05T08:57:39.420Z,96121.36
2019-04-05T09:00:46.302Z,96121.28
2019-04-05T09:03:53.300Z,96125.20
2019-04-05T09:07:00.141Z,96128.43
2019-04-05T09:10:07.227Z,96127.28
2019-04-05T09:13:15.159Z,96125.40
2019-04-05T09:16:22.160Z,96127.56
2019-04-05T09:19:29.212Z,96123.28
2019-04-05T09:22:36.122Z,96115.88
2019-04-05T09:25:44.349Z,96111.08
2019-04-05T09:28:51.507Z,96116.56
2019-04-05T09:31:58.376Z,96111.24
2019-04-05T09:35:05.537Z,96110.16
2019-04-05T09:38:13.621Z,96120.28
2019-04-05T09:41:20.604Z,96119.95
2019-04-05T09:44:28.632Z,96114.80
2019-04-05T09:47:46.401Z,96119.34
2019-04-05T09:50:54.787Z,96117.67
2019-04-05T09:54:01.866Z,96117.36
2019-04-05T09:57:08.756Z,96113.21
2019-04-05T10:00:19.882Z,96112.50
2019-04-05T10:03:27.447Z,96107.81
2019-04-05T10:06:34.350Z,96114.48
2019-04-05T10:09:44.995Z,96117.72
2019-04-05T10:12:51.909Z,96120.13
2019-04-05T10:15:59.016Z,96122.52
2019-04-05T10:19:06.091Z,96123.28
2019-04-05T10:22:12.952Z,96128.98
2019-04-05T10:25:19.892Z,96120.05
2019-04-05T10:28:26.766Z,96126.78
2019-04-05T10:31:33.674Z,96133.78
2019-04-05T10:34:41.965Z,96132.94
2019-04-05T10:37:48.903Z,96130.81
2019-04-05T10:40:57.888Z,96125.42
2019-04-05T10:44:06.547Z,96135.25
2019-04-05T10:47:13.617Z,96132.91
2019-04-05T10:50:22.259Z,96133.28
2019-04-05T10:53:29.168Z,96131.02
2019-04-05T10:56:36.087Z,96134.39
2019-04-05T10:59:46.615Z,96143.50
2019-04-05T11:02:54.608Z,96143.05
2019-04-05T11:06:01.483Z,96150.13
2019-04-05T11:09:09.927Z,96146.98
2019-04-05T11:12:16.874Z,96154.03
2019-04-05T11:15:23.906Z,96156.23
2019-04-05T11:18:32.828Z,96166.59
2019-04-05T11:21:40.909Z,96165.48
2019-04-05T11:24:47.778Z,96170.08
2019-04-05T11:27:54.810Z,96165.13
2019-04-05T11:31:01.678Z,96164.20
2019-04-05T11:34:08.712Z,96159.55
2019-04-05T11:37:16.899Z,96161.02
2019-04-05T11:40:24.377Z,96165.43
2019-04-05T11:43:34.180Z,96162.83
2019-04-05T11:46:41.082Z,96163.41
2019-04-05T11:49:50.124Z,96156.47
2019-04-05T11:52:57.004Z,96159.59
2019-04-05T11:56:14.435Z,96163.77
2019-04-05T11:59:16.144Z,96157.09
2019-04-05T12:02:27.291Z,96156.17
2019-04-05T12:05:34.449Z,96155.05
2019-04-05T12:08:42.219Z,96144.03
2019-04-05T12:11:56.906Z,96143.61
2019-04-05T12:15:06.201Z,96147.69
2019-04-05T12:18:12.537Z,96150.97
2019-04-05T12:21:21.064Z,96152.25
2019-04-05T12:24:28.202Z,96143.58
2019-04-05T12:27:35.094Z,96143.38
2019-04-05T12:30:45.924Z,96140.22
2019-04-05T12:33:52.553Z,96135.91
2019-04-05T12:36:59.511Z,96137.16
2019-04-05T12:40:10.250Z,96132.73
2019-04-05T12:43:16.916Z,96138.03
2019-04-05T12:46:24.149Z,96129.09
2019-04-05T12:49:31.053Z,96128.59
2019-04-05T12:52:38.146Z,96124.09
2019-04-05T12:55:45.083Z,96123.28
2019-04-05T12:58:53.684Z,96122.22
2019-04-05T13:02:00.617Z,96118.62
2019-04-05T13:05:08.297Z,96114.54
2019-04-05T13:08:15.200Z,96113.02
2019-04-05T13:11:25.792Z,96115.90
2019-04-05T13:14:30.690Z,96120.03
2019-04-05T13:17:38.272Z,96118.98
2019-04-05T13:20:46.376Z,96119.98
2019-04-05T13:23:53.239Z,96115.44
2019-04-05T13:27:01.911Z,96114.55
2019-04-05T13:30:09.041Z,96113.84
2019-04-05T13:33:15.950Z,96109.17
2019-04-05T13:36:23.438Z,96113.30
2019-04-05T13:39:30.397Z,96110.78
2019-04-05T13:42:37.360Z,96113.00
2019-04-05T13:45:46.357Z,96105.70
2019-04-05T13:48:53.578Z,96102.80
2019-04-05T13:52:00.490Z,96103.33
2019-04-05T13:55:10.437Z,96101.45
2019-04-05T13:58:16.600Z,96107.48
2019-04-05T14:01:23.655Z,96108.83
2019-04-05T14:04:30.552Z,96104.42
2019-04-05T14:07:39.032Z,96105.58
2019-04-05T14:10:46.047Z,96102.34
2019-04-05T14:13:54.287Z,96104.72
2019-04-05T14:17:01.184Z,96100.09
2019-04-05T14:20:09.400Z,96112.47
2019-04-05T14:23:16.336Z,96112.98
2019-04-05T14:26:23.251Z,96101.68
2019-04-05T14:29:33.201Z,96108.45
2019-04-05T14:32:38.726Z,96099.52
2019-04-05T14:35:45.621Z,96095.05
2019-04-05T14:38:52.566Z,96095.70
2019-04-05T14:42:09.177Z,96096.88
2019-04-05T14:45:08.807Z,96101.47
2019-04-05T14:48:17.040Z,96089.38
2019-04-05T14:51:24.207Z,96094.89
2019-04-05T14:54:31.253Z,96085.44
2019-04-05T14:57:38.124Z,96090.45
2019-04-05T15:00:47.261Z,96085.80
2019-04-05T15:03:54.691Z,96089.74
2019-04-05T15:07:01.605Z,96089.20
2019-04-05T15:10:08.801Z,96081.90
2019-04-05T15:13:15.805Z,96088.91
2019-04-05T15:16:23.496Z,96085.93
2019-04-05T15:19:30.645Z,96086.84
2019-04-05T15:22:37.518Z,96086.25
2019-04-05T15:25:44.413Z,96084.96
2019-04-05T15:28:54.644Z,96087.98
2019-04-05T15:32:02.413Z,96087.64
2019-04-05T15:35:10.844Z,96084.51
2019-04-05T15:38:17.743Z,96087.43
2019-04-05T15:41:24.616Z,96083.25
2019-04-05T15:44:31.691Z,96091.95
2019-04-05T15:47:38.785Z,96087.15
2019-04-05T15:50:45.709Z,96084.64
2019-04-05T15:53:53.125Z,96087.19
2019-04-05T15:57:03.773Z,96089.31
2019-04-05T16:00:12.825Z,96089.17
2019-04-05T16:03:19.954Z,96081.72
2019-04-05T16:06:27.394Z,96083.67
2019-04-05T16:09:34.288Z,96081.34
2019-04-05T16:12:41.174Z,96075.15
2019-04-05T16:15:48.131Z,96071.91
2019-04-05T16:18:55.001Z,96072.58
2019-04-05T16:22:02.143Z,96079.57
2019-04-05T16:25:10.828Z,96079.66
2019-04-05T16:28:17.755Z,96085.52
2019-04-05T16:31:24.699Z,96084.72
2019-04-05T16:34:31.682Z,96088.38
2019-04-05T16:37:38.666Z,96089.31
2019-04-05T16:40:46.652Z,96085.77
2019-04-05T16:43:53.535Z,96083.54
2019-04-05T16:47:00.614Z,96084.85
2019-04-05T16:50:08.546Z,96084.29
2019-04-05T16:53:15.469Z,96089.00
2019-04-05T16:56:28.945Z,96086.70
2019-04-05T16:59:38.792Z,96085.89
2019-04-05T17:02:45.959Z,96085.92
2019-04-05T17:05:52.915Z,96089.42
2019-04-05T17:09:01.819Z,96086.59
2019-04-05T17:12:10.512Z,96090.77
2019-04-05T17:15:18.039Z,96082.59
2019-04-05T17:18:25.013Z,96086.42
2019-04-05T17:21:31.895Z,96089.58
2019-04-05T17:24:38.864Z,96085.39
2019-04-05T17:27:45.755Z,96093.46
2019-04-05T17:30:52.810Z,96090.75
2019-04-05T17:33:59.809Z,96093.56
2019-04-05T17:37:07.803Z,96089.92
2019-04-05T17:40:14.832Z,96089.86
2019-04-05T17:43:21.806Z,96084.78
2019-04-05T17:46:28.719Z,96091.48
2019-04-05T17:49:35.633Z,96094.43
2019-04-05T17:52:42.556Z,96097.74
2019-04-05T17:55:49.541Z,96106.00
2019-04-05T17:58:56.842Z,96105.61
2019-04-05T18:02:03.951Z,96105.45
2019-04-05T18:05:10.866Z,96117.55
2019-04-05T18:08:17.872Z,96120.66
2019-04-05T18:11:24.756Z,96121.06
2019-04-05T18:14:31.663Z,96118.89
2019-04-05T18:17:38.746Z,96126.12
2019-04-05T18:20:45.759Z,96125.41
2019-04-05T18:23:52.902Z,96130.55
2019-04-05T18:26:59.931Z,96128.43
2019-04-05T18:30:07.616Z,96135.71
2019-04-05T18:33:14.584Z,96130.36
2019-04-05T18:36:21.582Z,96139.51
2019-04-05T18:39:28.535Z,96135.78
2019-04-05T18:42:35.437Z,96133.19
2019-04-05T18:45:42.489Z,96132.27
2019-04-05T18:48:49.472Z,96134.95
2019-04-05T18:51:56.381Z,96141.50
2019-04-05T18:55:03.323Z,96144.02
2019-04-05T18:58:10.265Z,96149.44
2019-04-05T19:01:17.371Z,96149.96
2019-04-05T19:04:24.354Z,96147.20
2019-04-05T19:07:31.271Z,96144.42
2019-04-05T19:10:39.097Z,96146.05
2019-04-05T19:14:00.546Z,96138.16
2019-04-05T19:16:59.229Z,96149.00
2019-04-05T19:20:06.786Z,96154.74
2019-04-05T19:23:13.684Z,96151.23
2019-04-05T19:26:20.544Z,96147.20
2019-04-05T19:29:27.631Z,96155.70
2019-04-05T19:51:30.877Z,96153.97
2019-04-05T19:54:37.977Z,96148.89
2019-04-05T19:57:46.592Z,96149.88
2019-04-05T20:00:55.253Z,96149.12
2019-04-05T20:04:02.653Z,96151.17
2019-04-05T20:07:09.646Z,96146.50
2019-04-05T20:10:16.605Z,96148.38
2019-04-05T20:13:26.195Z,96152.36
2019-04-05T20:16:32.228Z,96147.91
2019-04-05T20:19:39.610Z,96146.92
2019-04-05T20:22:49.273Z,96152.88
2019-04-05T20:25:56.452Z,96150.73
2019-04-05T20:29:09.633Z,96158.33
2019-04-05T20:32:16.533Z,96153.22
2019-04-05T20:35:23.406Z,96162.83
2019-04-05T20:38:30.763Z,96163.43
2019-04-05T20:41:39.421Z,96163.59
2019-04-05T20:44:46.306Z,96171.28
2019-04-05T20:47:53.297Z,96179.73
2019-04-05T20:51:00.295Z,96177.75
2019-04-05T20:54:07.257Z,96177.19
2019-04-05T20:57:15.435Z,96179.73
2019-04-05T21:00:23.871Z,96174.62
2019-04-05T21:03:30.745Z,96173.96
2019-04-05T21:06:40.644Z,96175.79
2019-04-05T21:09:49.038Z,96171.48
2019-04-05T21:12:56.091Z,96173.36
2019-04-05T21:16:02.973Z,96177.23
2019-04-05T21:19:09.826Z,96180.11
2019-04-05T21:22:16.813Z,96176.22
2019-04-05T21:25:23.694Z,96174.39
2019-04-05T21:28:30.582Z,96184.02
2019-04-05T21:31:38.775Z,96176.94
2019-04-05T21:34:46.060Z,96184.63
2019-04-05T21:37:52.971Z,96180.23
2019-04-05T21:40:59.971Z,96185.79
2019-04-05T21:44:08.700Z,96189.05
2019-04-05T21:47:15.588Z,96187.12
2019-04-05T21:50:22.463Z,96184.29
2019-04-05T21:53:29.346Z,96195.14
2019-04-05T21:56:38.360Z,96186.47
2019-04-05T21:59:48.379Z,96182.14
2019-04-05T22:02:55.320Z,96194.72
2019-04-05T22:06:03.362Z,96198.47
2019-04-05T22:09:11.000Z,96195.95
2019-04-05T22:12:17.955Z,96197.22
2019-04-05T22:15:24.823Z,96203.80
2019-04-05T22:18:31.767Z,96201.62
2019-04-05T22:21:40.284Z,96202.70
2019-04-05T22:24:58.568Z,96203.25
2019-04-05T22:27:56.119Z,96206.72
2019-04-05T22:31:03.071Z,96203.62
2019-04-05T22:34:09.961Z,96211.59
2019-04-05T22:37:16.852Z,96208.15
2019-04-05T22:40:23.688Z,96217.11
2019-04-05T22:43:30.563Z,96205.47
2019-04-05T22:46:37.597Z,96214.03
2019-04-05T22:49:44.472Z,96215.69
2019-04-05T22:52:51.319Z,96212.71
2019-04-05T22:55:58.906Z,96216.73
2019-04-05T22:59:05.756Z,96210.22
2019-04-05T23:02:12.685Z,96218.76
2019-04-05T23:05:19.546Z,96211.33
2019-04-05T23:08:26.432Z,96209.12
2019-04-05T23:11:33.646Z,96207.97
2019-04-05T23:14:40.569Z,96208.06
2019-04-05T23:17:47.626Z,96210.59
2019-04-05T23:20:54.516Z,96214.92
2019-04-05T23:24:01.401Z,96213.33
2019-04-05T23:27:08.389Z,96218.30
2019-04-05T23:30:17.544Z,96221.77
2019-04-05T23:33:24.445Z,96228.24
2019-04-05T23:36:31.301Z,96224.03
2019-04-05T23:39:38.398Z,96231.17
2019-04-05T23:42:48.164Z,96226.81
2019-04-05T23:45:58.253Z,96222.22
2019-04-05T23:49:05.092Z,96229.08
2019-04-05T23:52:11.984Z,96235.23
2019-04-05T23:55:18.830Z,96235.33
2019-04-05T23:58:25.715Z,96235.84
